createdAt,value
2024-02-14T00:00:15.844Z,5.69
2024-02-14T00:05:24.420Z,5.70
2024-02-14T00:10:28.320Z,5.77
2024-02-14T00:15:31.321Z,5.64
2024-02-14T00:20:35.617Z,5.71
2024-02-14T00:25:38.697Z,5.73
2024-02-14T00:30:41.496Z,5.67
2024-02-14T00:35:45.722Z,5.73
2024-02-14T00:40:48.534Z,5.75
2024-02-14T00:45:51.420Z,5.72
2024-02-14T00:50:55.589Z,5.77
2024-02-14T00:55:58.393Z,5.71
2024-02-14T01:01:01.276Z,5.69
2024-02-14T01:06:05.845Z,5.77
2024-02-14T01:11:08.799Z,5.79
2024-02-14T01:16:11.662Z,5.87
2024-02-14T01:21:15.894Z,5.88
2024-02-14T01:26:18.711Z,5.79
2024-02-14T01:31:22.127Z,5.72
2024-02-14T01:36:26.285Z,5.72
2024-02-14T01:41:29.118Z,5.69
2024-02-14T01:46:35.813Z,5.81
2024-02-14T01:51:40.422Z,5.79
2024-02-14T01:56:43.387Z,5.81
2024-02-14T02:01:46.223Z,5.80
2024-02-14T02:06:50.625Z,5.84
2024-02-14T02:11:57.235Z,5.83
2024-02-14T02:17:00.441Z,5.82
2024-02-14T02:22:05.870Z,5.81
2024-02-14T02:27:10.135Z,5.83
2024-02-14T02:32:12.935Z,5.86
2024-02-14T02:37:17.756Z,5.86
2024-02-14T02:42:21.985Z,5.83
2024-02-14T02:47:24.889Z,5.83
2024-02-14T02:52:28.819Z,5.80
2024-02-14T02:57:33.393Z,5.79
2024-02-14T03:02:39.429Z,5.71
2024-02-14T03:07:46.263Z,5.67
2024-02-14T03:12:50.622Z,5.64
2024-02-14T03:17:53.505Z,5.54
2024-02-14T03:22:56.437Z,5.51
2024-02-14T03:28:00.616Z,5.50
2024-02-14T03:33:03.515Z,5.48
2024-02-14T03:38:09.267Z,5.47
2024-02-14T03:43:13.490Z,5.53
2024-02-14T03:48:16.478Z,5.57
2024-02-14T03:53:19.323Z,5.60
2024-02-14T03:58:23.785Z,5.71
2024-02-14T04:03:30.155Z,5.77
2024-02-14T04:08:34.390Z,5.87
2024-02-14T04:13:38.741Z,6.06
2024-02-14T04:18:41.702Z,6.14
2024-02-14T04:23:44.642Z,6.24
2024-02-14T04:28:48.869Z,6.33
2024-02-14T04:33:53.775Z,6.47
2024-02-14T04:38:56.861Z,6.47
2024-02-14T04:44:05.329Z,6.54
2024-02-14T04:49:08.401Z,6.51
2024-02-14T04:54:11.704Z,6.55
2024-02-14T04:59:16.012Z,6.64
2024-02-14T05:04:18.945Z,6.68
2024-02-14T05:09:23.017Z,6.71
2024-02-14T05:14:32.574Z,6.73
2024-02-14T05:19:35.608Z,6.73
2024-02-14T05:24:39.375Z,6.75
2024-02-14T05:29:43.685Z,6.85
2024-02-14T05:34:46.664Z,6.86
2024-02-14T05:39:49.546Z,6.87
2024-02-14T05:44:53.998Z,6.90
2024-02-14T05:49:56.894Z,6.98
2024-02-14T05:54:59.704Z,6.99
2024-02-14T06:00:04.774Z,7.12
2024-02-14T06:05:15.131Z,7.06
2024-02-14T06:10:19.889Z,7.11
2024-02-14T06:15:24.064Z,7.20
2024-02-14T06:20:29.478Z,7.25
2024-02-14T06:25:34.267Z,7.31
2024-02-14T06:30:39.192Z,7.38
2024-02-14T06:35:42.259Z,7.36
2024-02-14T06:40:45.468Z,7.41
2024-02-14T06:45:49.870Z,7.52
2024-02-14T06:50:52.758Z,7.64
2024-02-14T06:55:55.529Z,7.74
2024-02-14T07:01:00.172Z,7.85
2024-02-14T07:06:02.994Z,7.90
2024-02-14T07:11:06.197Z,7.97
2024-02-14T07:16:12.061Z,7.98
2024-02-14T07:21:15.153Z,7.96
2024-02-14T07:26:17.960Z,7.91
2024-02-14T07:31:22.269Z,7.94
2024-02-14T07:36:25.418Z,7.94
2024-02-14T07:41:28.342Z,7.97
2024-02-14T07:46:32.778Z,7.99
2024-02-14T07:51:37.823Z,7.96
2024-02-14T07:56:41.166Z,8.13
2024-02-14T08:01:45.527Z,8.25
2024-02-14T08:06:50.237Z,8.41
2024-02-14T08:11:54.426Z,8.60
2024-02-14T08:16:59.412Z,8.75
2024-02-14T08:22:02.525Z,8.75
2024-02-14T08:27:07.811Z,8.88
2024-02-14T08:32:12.061Z,9.30
2024-02-14T08:37:14.881Z,9.36
2024-02-14T08:42:17.818Z,9.33
2024-02-14T08:47:22.153Z,9.59
2024-02-14T08:52:25.104Z,9.81
2024-02-14T08:57:28.032Z,9.87
2024-02-14T09:02:32.205Z,9.87
2024-02-14T09:07:35.070Z,9.99
2024-02-14T09:12:37.900Z,10.07
2024-02-14T09:17:42.953Z,10.12
2024-02-14T09:22:45.973Z,10.08
2024-02-14T09:27:49.196Z,10.19
2024-02-14T09:32:53.563Z,10.48
2024-02-14T09:37:56.662Z,10.91
2024-02-14T09:43:03.047Z,10.92
2024-02-14T09:48:09.688Z,10.71
2024-02-14T09:53:13.287Z,10.70
2024-02-14T09:58:16.216Z,10.67
2024-02-14T10:03:20.403Z,10.72
2024-02-14T10:08:24.306Z,10.88
2024-02-14T10:13:29.070Z,11.37
2024-02-14T10:18:33.978Z,11.62
2024-02-14T10:23:36.922Z,11.72
2024-02-14T10:33:48.029Z,11.86
2024-02-14T10:38:52.971Z,11.49
2024-02-14T10:43:55.849Z,11.60
2024-02-14T10:49:05.643Z,11.88
2024-02-14T10:54:13.217Z,11.80
2024-02-14T10:59:19.650Z,11.66
2024-02-14T11:04:23.967Z,11.68
2024-02-14T11:09:35.897Z,11.66
2024-02-14T11:14:40.313Z,11.70
2024-02-14T11:19:45.973Z,12.23
2024-02-14T11:24:49.271Z,12.09
2024-02-14T11:29:55.675Z,12.17
2024-02-14T11:35:00.342Z,12.50
2024-02-14T11:40:03.455Z,12.60
2024-02-14T11:45:07.281Z,12.80
2024-02-14T11:50:12.073Z,12.56
2024-02-14T11:55:16.688Z,12.87
2024-02-14T12:00:20.671Z,12.72
2024-02-14T12:05:24.850Z,13.55
2024-02-14T12:10:28.054Z,12.90
2024-02-14T12:15:30.969Z,12.66
2024-02-14T12:20:35.375Z,12.68
2024-02-14T12:25:38.258Z,12.51
2024-02-14T12:30:49.620Z,13.37
2024-02-14T12:35:55.937Z,12.71
2024-02-14T12:40:58.882Z,12.47
2024-02-14T12:46:01.941Z,12.52
2024-02-14T12:51:06.678Z,12.63
2024-02-14T12:56:09.975Z,12.75
2024-02-14T13:01:13.689Z,12.78
2024-02-14T13:06:18.053Z,12.84
2024-02-14T13:11:20.957Z,12.96
2024-02-14T13:16:23.819Z,13.70
2024-02-14T13:21:28.145Z,13.69
2024-02-14T13:26:31.123Z,13.50
2024-02-14T13:31:33.880Z,12.82
2024-02-14T13:36:38.061Z,12.47
2024-02-14T13:41:40.890Z,12.32
2024-02-14T13:46:46.263Z,12.31
2024-02-14T13:51:51.336Z,12.10
2024-02-14T13:56:54.259Z,11.97
2024-02-14T14:01:57.442Z,12.05
2024-02-14T14:07:04.269Z,12.18
2024-02-14T14:12:07.726Z,11.97
2024-02-14T14:25:50.131Z,12.26
2024-02-14T14:30:54.988Z,12.13
2024-02-14T14:35:58.018Z,12.13
2024-02-14T14:41:00.880Z,12.14
2024-02-14T14:46:05.188Z,12.03
2024-02-14T14:51:09.485Z,12.07
2024-02-14T14:56:12.459Z,11.95
2024-02-14T15:01:16.804Z,11.79
2024-02-14T15:06:20.096Z,11.56
2024-02-14T15:11:23.112Z,11.43
2024-02-14T15:16:27.389Z,11.47
2024-02-14T15:21:30.302Z,11.40
2024-02-14T15:26:41.371Z,11.40
2024-02-14T15:32:03.362Z,11.31
2024-02-14T15:37:06.907Z,11.09
2024-02-14T15:42:11.464Z,10.94
2024-02-14T15:47:15.759Z,10.99
2024-02-14T15:52:19.483Z,10.85
2024-02-14T15:57:22.456Z,10.79
2024-02-14T16:02:26.742Z,10.75
2024-02-14T16:07:30.099Z,10.73
2024-02-14T16:12:33.058Z,10.70
2024-02-14T16:17:37.378Z,10.70
2024-02-14T16:22:43.023Z,10.67
2024-02-14T16:27:47.152Z,10.66
2024-02-14T16:32:51.388Z,10.68
2024-02-14T16:37:55.215Z,10.69
2024-02-14T16:42:59.912Z,10.67
2024-02-14T16:48:04.328Z,10.70
2024-02-14T16:53:07.794Z,10.67
2024-02-14T16:58:10.642Z,10.67
2024-02-14T17:03:17.127Z,10.67
2024-02-14T17:08:21.045Z,10.62
2024-02-14T17:13:24.144Z,10.57
2024-02-14T17:18:30.445Z,10.53
2024-02-14T17:23:34.361Z,10.46
2024-02-14T17:28:37.534Z,10.42
2024-02-14T17:33:42.389Z,10.35
2024-02-14T17:38:45.592Z,10.29
2024-02-14T17:43:48.541Z,10.25
2024-02-14T17:48:52.956Z,10.29
2024-02-14T17:53:56.024Z,10.33
2024-02-14T17:58:58.926Z,10.31
2024-02-14T18:04:05.603Z,10.38
2024-02-14T18:09:09.813Z,10.35
2024-02-14T18:14:12.607Z,10.39
2024-02-14T18:19:17.090Z,10.42
2024-02-14T18:24:20.186Z,10.40
2024-02-14T18:29:22.986Z,10.41
2024-02-14T18:34:27.348Z,10.46
2024-02-14T18:39:30.305Z,10.38
2024-02-14T18:44:33.474Z,10.34
2024-02-14T18:49:37.870Z,10.37
2024-02-14T18:54:40.890Z,10.40
2024-02-14T18:59:44.974Z,10.43
2024-02-14T19:04:49.166Z,10.50
2024-02-14T19:09:52.095Z,10.45
2024-02-14T19:14:56.203Z,10.48
2024-02-14T19:20:00.584Z,10.49
2024-02-14T19:25:03.559Z,10.48
2024-02-14T19:30:07.655Z,10.59
2024-02-14T19:35:12.111Z,10.61
2024-02-14T19:40:15.166Z,10.59
2024-02-14T19:45:18.145Z,10.55
2024-02-14T19:50:22.755Z,10.54
2024-02-14T19:55:25.768Z,10.50
2024-02-14T20:00:29.312Z,10.49
2024-02-14T20:05:38.027Z,10.48
2024-02-14T20:10:41.736Z,10.49
2024-02-14T20:15:44.857Z,10.53
2024-02-14T20:20:49.397Z,10.58
2024-02-14T20:25:52.543Z,10.56
2024-02-14T20:30:56.418Z,10.60
2024-02-14T20:36:01.326Z,10.57
2024-02-14T20:41:04.690Z,10.52
2024-02-14T20:46:07.880Z,10.47
2024-02-14T20:51:12.175Z,10.47
2024-02-14T20:56:15.338Z,10.41
2024-02-14T21:01:18.304Z,10.40
2024-02-14T21:06:22.725Z,10.38
2024-02-14T21:11:25.701Z,10.35
2024-02-14T21:16:28.538Z,10.33
2024-02-14T21:21:36.562Z,10.32
2024-02-14T21:26:39.902Z,10.29
2024-02-14T21:31:43.829Z,10.29
2024-02-14T21:36:48.320Z,10.35
2024-02-14T21:42:00.027Z,10.38
2024-02-14T21:47:03.010Z,10.30
2024-02-14T21:52:08.458Z,10.41
2024-02-14T21:57:12.767Z,10.27
2024-02-14T22:02:15.732Z,10.29
2024-02-14T22:07:20.700Z,10.25
2024-02-14T22:12:24.464Z,10.19
2024-02-14T22:17:27.629Z,10.15
2024-02-14T22:22:31.864Z,10.19
2024-02-14T22:27:35.122Z,10.08
2024-02-14T22:32:38.651Z,10.04
2024-02-14T22:37:42.957Z,9.99
2024-02-14T22:42:45.765Z,9.98
2024-02-14T22:47:48.602Z,10.06
2024-02-14T22:52:53.152Z,10.11
2024-02-14T22:57:56.467Z,10.07
2024-02-14T23:02:59.552Z,10.14
2024-02-14T23:08:04.492Z,10.18
2024-02-14T23:13:07.935Z,10.19
2024-02-14T23:18:11.240Z,10.16
2024-02-14T23:23:15.734Z,10.22
2024-02-14T23:28:18.819Z,10.19
2024-02-14T23:33:21.848Z,10.17
2024-02-14T23:38:26.081Z,10.21
2024-02-14T23:43:28.894Z,10.25
2024-02-14T23:48:31.767Z,10.28
2024-02-14T23:53:35.981Z,10.34
2024-02-14T23:58:39.391Z,10.31
